sensor_id;sensor_type;location;lat;lon;timestamp;pressure;altitude;pressure_sealevel;temperature
12007;BMP180;6062;47.294;12.182;2023-04-24T00:00:35;79508.00;;;8.40
12007;BMP180;6062;47.294;12.182;2023-04-24T00:03:02;79510.00;;;8.40
12007;BMP180;6062;47.294;12.182;2023-04-24T00:05:28;79504.00;;;8.40
12007;BMP180;6062;47.294;12.182;2023-04-24T00:07:55;79508.00;;;8.30
12007;BMP180;6062;47.294;12.182;2023-04-24T00:10:21;79502.00;;;8.30
12007;BMP180;6062;47.294;12.182;2023-04-24T00:12:47;79503.00;;;8.30
12007;BMP180;6062;47.294;12.182;2023-04-24T00:15:13;79512.00;;;8.20
12007;BMP180;6062;47.294;12.182;2023-04-24T00:17:38;79502.00;;;8.20
12007;BMP180;6062;47.294;12.182;2023-04-24T00:20:05;79495.00;;;8.10
12007;BMP180;6062;47.294;12.182;2023-04-24T00:22:32;79498.00;;;8.10
12007;BMP180;6062;47.294;12.182;2023-04-24T00:24:58;79492.00;;;8.00
12007;BMP180;6062;47.294;12.182;2023-04-24T00:27:24;79500.00;;;7.90
12007;BMP180;6062;47.294;12.182;2023-04-24T00:29:50;79493.00;;;7.90
12007;BMP180;6062;47.294;12.182;2023-04-24T00:32:16;79497.00;;;7.90
12007;BMP180;6062;47.294;12.182;2023-04-24T00:34:43;79491.00;;;7.90
12007;BMP180;6062;47.294;12.182;2023-04-24T00:37:08;79484.00;;;7.90
12007;BMP180;6062;47.294;12.182;2023-04-24T00:39:34;79486.00;;;7.90
12007;BMP180;6062;47.294;12.182;2023-04-24T00:42:00;79488.00;;;7.90
12007;BMP180;6062;47.294;12.182;2023-04-24T00:44:27;79484.00;;;7.90
12007;BMP180;6062;47.294;12.182;2023-04-24T00:46:54;79474.00;;;7.90
12007;BMP180;6062;47.294;12.182;2023-04-24T00:49:23;79476.00;;;7.80
12007;BMP180;6062;47.294;12.182;2023-04-24T00:51:49;79476.00;;;7.80
12007;BMP180;6062;47.294;12.182;2023-04-24T00:54:17;79468.00;;;7.70
12007;BMP180;6062;47.294;12.182;2023-04-24T00:56:44;79470.00;;;7.60
12007;BMP180;6062;47.294;12.182;2023-04-24T00:59:16;79465.00;;;7.40
12007;BMP180;6062;47.294;12.182;2023-04-24T01:01:44;79467.00;;;7.30
12007;BMP180;6062;47.294;12.182;2023-04-24T01:04:12;79455.00;;;7.20
12007;BMP180;6062;47.294;12.182;2023-04-24T01:06:39;79463.00;;;7.10
12007;BMP180;6062;47.294;12.182;2023-04-24T01:09:06;79444.00;;;7.00
12007;BMP180;6062;47.294;12.182;2023-04-24T01:11:36;79459.00;;;6.90
12007;BMP180;6062;47.294;12.182;2023-04-24T01:14:02;79454.00;;;6.90
12007;BMP180;6062;47.294;12.182;2023-04-24T01:16:28;79468.00;;;6.90
12007;BMP180;6062;47.294;12.182;2023-04-24T01:18:53;79468.00;;;6.90
12007;BMP180;6062;47.294;12.182;2023-04-24T01:21:20;79470.00;;;6.80
12007;BMP180;6062;47.294;12.182;2023-04-24T01:23:47;79459.00;;;6.80
12007;BMP180;6062;47.294;12.182;2023-04-24T01:26:15;79473.00;;;6.80
12007;BMP180;6062;47.294;12.182;2023-04-24T01:28:42;79475.00;;;6.80
12007;BMP180;6062;47.294;12.182;2023-04-24T01:31:07;79470.00;;;6.80
12007;BMP180;6062;47.294;12.182;2023-04-24T01:33:33;79475.00;;;6.80
12007;BMP180;6062;47.294;12.182;2023-04-24T01:36:00;79471.00;;;6.80
12007;BMP180;6062;47.294;12.182;2023-04-24T01:38:26;79472.00;;;6.70
12007;BMP180;6062;47.294;12.182;2023-04-24T01:40:52;79466.00;;;6.70
12007;BMP180;6062;47.294;12.182;2023-04-24T01:43:19;79471.00;;;6.70
12007;BMP180;6062;47.294;12.182;2023-04-24T01:45:44;79473.00;;;6.70
12007;BMP180;6062;47.294;12.182;2023-04-24T01:48:12;79470.00;;;6.70
12007;BMP180;6062;47.294;12.182;2023-04-24T01:50:39;79479.00;;;6.70
12007;BMP180;6062;47.294;12.182;2023-04-24T01:53:05;79477.00;;;6.70
12007;BMP180;6062;47.294;12.182;2023-04-24T01:55:31;79471.00;;;6.70
12007;BMP180;6062;47.294;12.182;2023-04-24T01:57:58;79477.00;;;6.70
12007;BMP180;6062;47.294;12.182;2023-04-24T02:00:25;79478.00;;;6.70
12007;BMP180;6062;47.294;12.182;2023-04-24T02:02:51;79470.00;;;6.70
12007;BMP180;6062;47.294;12.182;2023-04-24T02:05:16;79477.00;;;6.70
12007;BMP180;6062;47.294;12.182;2023-04-24T02:07:42;79477.00;;;6.70
12007;BMP180;6062;47.294;12.182;2023-04-24T02:10:09;79479.00;;;6.70
12007;BMP180;6062;47.294;12.182;2023-04-24T02:12:34;79481.00;;;6.60
12007;BMP180;6062;47.294;12.182;2023-04-24T02:15:01;79484.00;;;6.60
12007;BMP180;6062;47.294;12.182;2023-04-24T02:17:26;79489.00;;;6.50
12007;BMP180;6062;47.294;12.182;2023-04-24T02:19:52;79490.00;;;6.40
12007;BMP180;6062;47.294;12.182;2023-04-24T02:22:18;79487.00;;;6.30
12007;BMP180;6062;47.294;12.182;2023-04-24T02:24:44;79494.00;;;6.20
12007;BMP180;6062;47.294;12.182;2023-04-24T02:27:10;79488.00;;;6.00
12007;BMP180;6062;47.294;12.182;2023-04-24T02:29:37;79486.00;;;5.80
12007;BMP180;6062;47.294;12.182;2023-04-24T02:32:02;79479.00;;;5.60
12007;BMP180;6062;47.294;12.182;2023-04-24T02:34:28;79487.00;;;5.50
12007;BMP180;6062;47.294;12.182;2023-04-24T02:36:54;79477.00;;;5.50
12007;BMP180;6062;47.294;12.182;2023-04-24T02:39:20;79470.00;;;5.40
12007;BMP180;6062;47.294;12.182;2023-04-24T02:41:46;79472.00;;;5.40
12007;BMP180;6062;47.294;12.182;2023-04-24T02:44:12;79470.00;;;5.50
12007;BMP180;6062;47.294;12.182;2023-04-24T02:46:37;79479.00;;;5.50
12007;BMP180;6062;47.294;12.182;2023-04-24T02:49:03;79487.00;;;5.60
12007;BMP180;6062;47.294;12.182;2023-04-24T02:51:29;79480.00;;;5.60
12007;BMP180;6062;47.294;12.182;2023-04-24T02:53:55;79489.00;;;5.60
12007;BMP180;6062;47.294;12.182;2023-04-24T02:56:21;79489.00;;;5.60
12007;BMP180;6062;47.294;12.182;2023-04-24T02:58:47;79485.00;;;5.70
12007;BMP180;6062;47.294;12.182;2023-04-24T03:01:12;79483.00;;;5.70
12007;BMP180;6062;47.294;12.182;2023-04-24T03:03:39;79480.00;;;5.70
12007;BMP180;6062;47.294;12.182;2023-04-24T03:06:05;79467.00;;;5.70
12007;BMP180;6062;47.294;12.182;2023-04-24T03:08:32;79474.00;;;5.70
12007;BMP180;6062;47.294;12.182;2023-04-24T03:10:58;79466.00;;;5.70
12007;BMP180;6062;47.294;12.182;2023-04-24T03:13:23;79469.00;;;5.70
12007;BMP180;6062;47.294;12.182;2023-04-24T03:15:49;79466.00;;;5.70
12007;BMP180;6062;47.294;12.182;2023-04-24T03:18:15;79470.00;;;5.70
12007;BMP180;6062;47.294;12.182;2023-04-24T03:20:40;79460.00;;;5.70
12007;BMP180;6062;47.294;12.182;2023-04-24T03:23:06;79463.00;;;5.80
12007;BMP180;6062;47.294;12.182;2023-04-24T03:25:32;79455.00;;;5.80
12007;BMP180;6062;47.294;12.182;2023-04-24T03:27:58;79454.00;;;5.80
12007;BMP180;6062;47.294;12.182;2023-04-24T03:30:23;79457.00;;;5.90
12007;BMP180;6062;47.294;12.182;2023-04-24T03:32:49;79452.00;;;5.90
12007;BMP180;6062;47.294;12.182;2023-04-24T03:35:15;79447.00;;;5.90
12007;BMP180;6062;47.294;12.182;2023-04-24T03:37:40;79455.00;;;5.90
12007;BMP180;6062;47.294;12.182;2023-04-24T03:40:07;79457.00;;;5.90
12007;BMP180;6062;47.294;12.182;2023-04-24T03:42:33;79456.00;;;5.90
12007;BMP180;6062;47.294;12.182;2023-04-24T03:44:59;79458.00;;;5.80
12007;BMP180;6062;47.294;12.182;2023-04-24T03:47:24;79459.00;;;5.80
12007;BMP180;6062;47.294;12.182;2023-04-24T03:49:50;79455.00;;;5.70
12007;BMP180;6062;47.294;12.182;2023-04-24T03:52:16;79460.00;;;5.70
12007;BMP180;6062;47.294;12.182;2023-04-24T03:54:42;79453.00;;;5.70
12007;BMP180;6062;47.294;12.182;2023-04-24T03:57:07;79439.00;;;5.70
12007;BMP180;6062;47.294;12.182;2023-04-24T03:59:33;79447.00;;;5.70
12007;BMP180;6062;47.294;12.182;2023-04-24T04:01:59;79447.00;;;5.70
12007;BMP180;6062;47.294;12.182;2023-04-24T04:04:24;79445.00;;;5.70
12007;BMP180;6062;47.294;12.182;2023-04-24T04:06:50;79441.00;;;5.70
12007;BMP180;6062;47.294;12.182;2023-04-24T04:09:16;79448.00;;;5.70
12007;BMP180;6062;47.294;12.182;2023-04-24T04:11:42;79453.00;;;5.70
12007;BMP180;6062;47.294;12.182;2023-04-24T04:14:08;79452.00;;;5.70
12007;BMP180;6062;47.294;12.182;2023-04-24T04:16:33;79449.00;;;5.70
12007;BMP180;6062;47.294;12.182;2023-04-24T04:18:59;79449.00;;;5.70
12007;BMP180;6062;47.294;12.182;2023-04-24T04:21:25;79443.00;;;5.70
12007;BMP180;6062;47.294;12.182;2023-04-24T04:23:52;79455.00;;;5.70
12007;BMP180;6062;47.294;12.182;2023-04-24T04:26:18;79453.00;;;5.70
12007;BMP180;6062;47.294;12.182;2023-04-24T04:28:44;79456.00;;;5.70
12007;BMP180;6062;47.294;12.182;2023-04-24T04:31:10;79459.00;;;5.70
12007;BMP180;6062;47.294;12.182;2023-04-24T04:33:35;79464.00;;;5.70
12007;BMP180;6062;47.294;12.182;2023-04-24T04:36:03;79463.00;;;5.80
12007;BMP180;6062;47.294;12.182;2023-04-24T04:38:29;79457.00;;;5.70
12007;BMP180;6062;47.294;12.182;2023-04-24T04:40:55;79460.00;;;5.70
12007;BMP180;6062;47.294;12.182;2023-04-24T04:43:24;79467.00;;;5.70
12007;BMP180;6062;47.294;12.182;2023-04-24T04:45:51;79464.00;;;5.70
12007;BMP180;6062;47.294;12.182;2023-04-24T04:48:18;79460.00;;;5.70
12007;BMP180;6062;47.294;12.182;2023-04-24T04:50:44;79466.00;;;5.80
12007;BMP180;6062;47.294;12.182;2023-04-24T04:53:10;79471.00;;;5.80
12007;BMP180;6062;47.294;12.182;2023-04-24T04:55:37;79468.00;;;5.80
12007;BMP180;6062;47.294;12.182;2023-04-24T04:58:03;79471.00;;;5.80
12007;BMP180;6062;47.294;12.182;2023-04-24T05:00:29;79473.00;;;5.80
12007;BMP180;6062;47.294;12.182;2023-04-24T05:02:59;79470.00;;;5.80
12007;BMP180;6062;47.294;12.182;2023-04-24T05:05:25;79477.00;;;5.80
12007;BMP180;6062;47.294;12.182;2023-04-24T05:07:51;79476.00;;;5.70
12007;BMP180;6062;47.294;12.182;2023-04-24T05:10:17;79470.00;;;5.70
12007;BMP180;6062;47.294;12.182;2023-04-24T05:12:42;79469.00;;;5.70
12007;BMP180;6062;47.294;12.182;2023-04-24T05:15:08;79485.00;;;5.80
12007;BMP180;6062;47.294;12.182;2023-04-24T05:17:34;79473.00;;;5.80
12007;BMP180;6062;47.294;12.182;2023-04-24T05:20:01;79488.00;;;5.80
12007;BMP180;6062;47.294;12.182;2023-04-24T05:22:26;79470.00;;;5.80
12007;BMP180;6062;47.294;12.182;2023-04-24T05:24:52;79481.00;;;5.90
12007;BMP180;6062;47.294;12.182;2023-04-24T05:27:19;79487.00;;;5.80
12007;BMP180;6062;47.294;12.182;2023-04-24T05:29:44;79489.00;;;5.70
12007;BMP180;6062;47.294;12.182;2023-04-24T05:32:10;79488.00;;;5.70
12007;BMP180;6062;47.294;12.182;2023-04-24T05:34:36;79475.00;;;5.70
12007;BMP180;6062;47.294;12.182;2023-04-24T05:37:02;79487.00;;;5.60
12007;BMP180;6062;47.294;12.182;2023-04-24T05:39:28;79482.00;;;5.60
12007;BMP180;6062;47.294;12.182;2023-04-24T05:41:54;79483.00;;;5.60
12007;BMP180;6062;47.294;12.182;2023-04-24T05:44:23;79494.00;;;5.60
12007;BMP180;6062;47.294;12.182;2023-04-24T05:46:49;79479.00;;;5.70
12007;BMP180;6062;47.294;12.182;2023-04-24T05:49:14;79487.00;;;5.70
12007;BMP180;6062;47.294;12.182;2023-04-24T05:51:40;79492.00;;;5.70
12007;BMP180;6062;47.294;12.182;2023-04-24T05:54:06;79481.00;;;5.80
12007;BMP180;6062;47.294;12.182;2023-04-24T05:56:32;79496.00;;;5.90
12007;BMP180;6062;47.294;12.182;2023-04-24T05:58:58;79491.00;;;6.00
12007;BMP180;6062;47.294;12.182;2023-04-24T06:01:24;79493.00;;;6.20
12007;BMP180;6062;47.294;12.182;2023-04-24T06:03:50;79489.00;;;6.30
12007;BMP180;6062;47.294;12.182;2023-04-24T06:06:16;79489.00;;;6.30
12007;BMP180;6062;47.294;12.182;2023-04-24T06:08:42;79494.00;;;6.20
12007;BMP180;6062;47.294;12.182;2023-04-24T06:11:09;79487.00;;;6.20
12007;BMP180;6062;47.294;12.182;2023-04-24T06:13:35;79493.00;;;6.30
12007;BMP180;6062;47.294;12.182;2023-04-24T06:16:01;79486.00;;;6.30
12007;BMP180;6062;47.294;12.182;2023-04-24T06:18:27;79487.00;;;6.40
12007;BMP180;6062;47.294;12.182;2023-04-24T06:20:52;79477.00;;;6.60
12007;BMP180;6062;47.294;12.182;2023-04-24T06:23:18;79480.00;;;6.70
12007;BMP180;6062;47.294;12.182;2023-04-24T06:25:44;79491.00;;;6.80
12007;BMP180;6062;47.294;12.182;2023-04-24T06:28:10;79484.00;;;6.90
12007;BMP180;6062;47.294;12.182;2023-04-24T06:30:35;79489.00;;;6.90
12007;BMP180;6062;47.294;12.182;2023-04-24T06:33:01;79481.00;;;7.00
12007;BMP180;6062;47.294;12.182;2023-04-24T06:35:27;79480.00;;;7.10
12007;BMP180;6062;47.294;12.182;2023-04-24T06:37:52;79488.00;;;7.20
12007;BMP180;6062;47.294;12.182;2023-04-24T06:40:18;79492.00;;;7.30
12007;BMP180;6062;47.294;12.182;2023-04-24T06:42:44;79487.00;;;7.40
12007;BMP180;6062;47.294;12.182;2023-04-24T06:45:10;79497.00;;;7.50
12007;BMP180;6062;47.294;12.182;2023-04-24T06:47:36;79493.00;;;7.60
12007;BMP180;6062;47.294;12.182;2023-04-24T06:50:03;79495.00;;;7.60
12007;BMP180;6062;47.294;12.182;2023-04-24T06:52:29;79503.00;;;7.70
12007;BMP180;6062;47.294;12.182;2023-04-24T06:55:02;79491.00;;;7.80
12007;BMP180;6062;47.294;12.182;2023-04-24T06:57:29;79491.00;;;7.90
12007;BMP180;6062;47.294;12.182;2023-04-24T06:59:55;79495.00;;;8.00
12007;BMP180;6062;47.294;12.182;2023-04-24T07:02:21;79497.00;;;8.00
12007;BMP180;6062;47.294;12.182;2023-04-24T07:04:47;79496.00;;;8.10
12007;BMP180;6062;47.294;12.182;2023-04-24T07:07:15;79499.00;;;8.10
12007;BMP180;6062;47.294;12.182;2023-04-24T07:09:42;79500.00;;;8.20
12007;BMP180;6062;47.294;12.182;2023-04-24T07:12:08;79512.00;;;8.30
12007;BMP180;6062;47.294;12.182;2023-04-24T07:14:36;79506.00;;;8.40
12007;BMP180;6062;47.294;12.182;2023-04-24T07:17:04;79516.00;;;8.50
12007;BMP180;6062;47.294;12.182;2023-04-24T07:19:31;79517.00;;;8.60
12007;BMP180;6062;47.294;12.182;2023-04-24T07:21:56;79518.00;;;8.60
12007;BMP180;6062;47.294;12.182;2023-04-24T07:24:26;79508.00;;;8.70
12007;BMP180;6062;47.294;12.182;2023-04-24T07:26:53;79508.00;;;8.70
12007;BMP180;6062;47.294;12.182;2023-04-24T07:29:19;79507.00;;;8.80
12007;BMP180;6062;47.294;12.182;2023-04-24T07:31:45;79510.00;;;8.90
12007;BMP180;6062;47.294;12.182;2023-04-24T07:34:11;79519.00;;;9.00
12007;BMP180;6062;47.294;12.182;2023-04-24T07:36:37;79507.00;;;9.10
12007;BMP180;6062;47.294;12.182;2023-04-24T07:39:04;79514.00;;;9.20
12007;BMP180;6062;47.294;12.182;2023-04-24T07:41:31;79515.00;;;9.20
12007;BMP180;6062;47.294;12.182;2023-04-24T07:43:58;79517.00;;;9.30
12007;BMP180;6062;47.294;12.182;2023-04-24T07:46:24;79515.00;;;9.30
12007;BMP180;6062;47.294;12.182;2023-04-24T07:48:50;79514.00;;;9.30
12007;BMP180;6062;47.294;12.182;2023-04-24T07:51:16;79520.00;;;9.30
12007;BMP180;6062;47.294;12.182;2023-04-24T07:53:43;79517.00;;;9.40
12007;BMP180;6062;47.294;12.182;2023-04-24T07:56:09;79510.00;;;9.40
12007;BMP180;6062;47.294;12.182;2023-04-24T07:58:35;79517.00;;;9.50
12007;BMP180;6062;47.294;12.182;2023-04-24T08:01:01;79520.00;;;9.60
12007;BMP180;6062;47.294;12.182;2023-04-24T08:03:26;79520.00;;;9.70
12007;BMP180;6062;47.294;12.182;2023-04-24T08:05:52;79516.00;;;9.80
12007;BMP180;6062;47.294;12.182;2023-04-24T08:08:20;79505.00;;;9.90
12007;BMP180;6062;47.294;12.182;2023-04-24T08:10:46;79512.00;;;9.90
12007;BMP180;6062;47.294;12.182;2023-04-24T08:13:12;79519.00;;;9.90
12007;BMP180;6062;47.294;12.182;2023-04-24T08:15:38;79515.00;;;9.90
12007;BMP180;6062;47.294;12.182;2023-04-24T08:18:03;79529.00;;;9.90
12007;BMP180;6062;47.294;12.182;2023-04-24T08:20:29;79524.00;;;9.90
12007;BMP180;6062;47.294;12.182;2023-04-24T08:22:55;79527.00;;;9.90
12007;BMP180;6062;47.294;12.182;2023-04-24T08:25:21;79528.00;;;9.80
12007;BMP180;6062;47.294;12.182;2023-04-24T08:27:48;79538.00;;;9.70
12007;BMP180;6062;47.294;12.182;2023-04-24T08:30:14;79538.00;;;9.60
12007;BMP180;6062;47.294;12.182;2023-04-24T08:32:40;79540.00;;;9.60
12007;BMP180;6062;47.294;12.182;2023-04-24T08:35:07;79530.00;;;9.60
12007;BMP180;6062;47.294;12.182;2023-04-24T08:37:35;79531.00;;;9.50
12007;BMP180;6062;47.294;12.182;2023-04-24T08:40:06;79537.00;;;9.50
12007;BMP180;6062;47.294;12.182;2023-04-24T08:42:35;79537.00;;;9.40
12007;BMP180;6062;47.294;12.182;2023-04-24T08:45:02;79531.00;;;9.40
12007;BMP180;6062;47.294;12.182;2023-04-24T08:47:29;79534.00;;;9.50
12007;BMP180;6062;47.294;12.182;2023-04-24T08:49:56;79541.00;;;9.50
12007;BMP180;6062;47.294;12.182;2023-04-24T08:52:23;79537.00;;;9.60
12007;BMP180;6062;47.294;12.182;2023-04-24T08:54:49;79548.00;;;9.60
12007;BMP180;6062;47.294;12.182;2023-04-24T08:57:16;79550.00;;;9.70
12007;BMP180;6062;47.294;12.182;2023-04-24T08:59:42;79536.00;;;9.90
12007;BMP180;6062;47.294;12.182;2023-04-24T09:02:11;79542.00;;;10.00
12007;BMP180;6062;47.294;12.182;2023-04-24T09:04:37;79550.00;;;10.10
12007;BMP180;6062;47.294;12.182;2023-04-24T09:07:04;79542.00;;;10.30
12007;BMP180;6062;47.294;12.182;2023-04-24T09:09:33;79542.00;;;10.50
12007;BMP180;6062;47.294;12.182;2023-04-24T09:12:00;79549.00;;;10.70
12007;BMP180;6062;47.294;12.182;2023-04-24T09:14:27;79543.00;;;10.90
12007;BMP180;6062;47.294;12.182;2023-04-24T09:16:53;79549.00;;;11.00
12007;BMP180;6062;47.294;12.182;2023-04-24T09:19:19;79543.00;;;11.10
12007;BMP180;6062;47.294;12.182;2023-04-24T09:21:47;79542.00;;;11.20
12007;BMP180;6062;47.294;12.182;2023-04-24T09:24:21;79547.00;;;11.40
12007;BMP180;6062;47.294;12.182;2023-04-24T09:26:59;79550.00;;;11.60
12007;BMP180;6062;47.294;12.182;2023-04-24T09:29:27;79553.00;;;11.90
12007;BMP180;6062;47.294;12.182;2023-04-24T09:31:54;79554.00;;;12.20
12007;BMP180;6062;47.294;12.182;2023-04-24T09:34:25;79544.00;;;12.60
12007;BMP180;6062;47.294;12.182;2023-04-24T09:36:54;79542.00;;;12.70
12007;BMP180;6062;47.294;12.182;2023-04-24T09:39:20;79539.00;;;12.80
12007;BMP180;6062;47.294;12.182;2023-04-24T09:41:51;79546.00;;;13.00
12007;BMP180;6062;47.294;12.182;2023-04-24T09:44:23;79546.00;;;13.10
12007;BMP180;6062;47.294;12.182;2023-04-24T09:46:56;79552.00;;;13.40
12007;BMP180;6062;47.294;12.182;2023-04-24T09:49:30;79547.00;;;13.60
12007;BMP180;6062;47.294;12.182;2023-04-24T09:52:05;79545.00;;;13.80
12007;BMP180;6062;47.294;12.182;2023-04-24T09:54:31;79553.00;;;14.00
12007;BMP180;6062;47.294;12.182;2023-04-24T09:56:57;79547.00;;;14.10
12007;BMP180;6062;47.294;12.182;2023-04-24T09:59:23;79539.00;;;14.30
12007;BMP180;6062;47.294;12.182;2023-04-24T10:01:49;79544.00;;;14.40
12007;BMP180;6062;47.294;12.182;2023-04-24T10:04:22;79541.00;;;14.60
12007;BMP180;6062;47.294;12.182;2023-04-24T10:06:50;79542.00;;;14.70
12007;BMP180;6062;47.294;12.182;2023-04-24T10:09:26;79554.00;;;14.70
12007;BMP180;6062;47.294;12.182;2023-04-24T10:11:54;79539.00;;;14.60
12007;BMP180;6062;47.294;12.182;2023-04-24T10:18:01;79544.00;;;14.20
12007;BMP180;6062;47.294;12.182;2023-04-24T10:20:29;79544.00;;;14.00
12007;BMP180;6062;47.294;12.182;2023-04-24T10:22:59;79552.00;;;13.90
12007;BMP180;6062;47.294;12.182;2023-04-24T10:25:31;79548.00;;;13.90
12007;BMP180;6062;47.294;12.182;2023-04-24T10:27:59;79552.00;;;13.80
12007;BMP180;6062;47.294;12.182;2023-04-24T10:30:31;79555.00;;;13.80
12007;BMP180;6062;47.294;12.182;2023-04-24T10:33:02;79555.00;;;13.70
12007;BMP180;6062;47.294;12.182;2023-04-24T10:35:31;79557.00;;;13.70
12007;BMP180;6062;47.294;12.182;2023-04-24T10:38:03;79560.00;;;13.70
12007;BMP180;6062;47.294;12.182;2023-04-24T10:40:33;79559.00;;;13.50
12007;BMP180;6062;47.294;12.182;2023-04-24T10:43:03;79566.00;;;13.20
12007;BMP180;6062;47.294;12.182;2023-04-24T10:45:31;79551.00;;;12.90
12007;BMP180;6062;47.294;12.182;2023-04-24T10:48:09;79553.00;;;12.50
12007;BMP180;6062;47.294;12.182;2023-04-24T10:50:48;79563.00;;;12.00
12007;BMP180;6062;47.294;12.182;2023-04-24T10:53:20;79558.00;;;11.70
12007;BMP180;6062;47.294;12.182;2023-04-24T10:56:03;79556.00;;;11.60
12007;BMP180;6062;47.294;12.182;2023-04-24T10:58:49;79559.00;;;11.60
12007;BMP180;6062;47.294;12.182;2023-04-24T11:01:31;79568.00;;;11.70
12007;BMP180;6062;47.294;12.182;2023-04-24T11:04:03;79568.00;;;11.80
12007;BMP180;6062;47.294;12.182;2023-04-24T11:09:06;79567.00;;;12.10
12007;BMP180;6062;47.294;12.182;2023-04-24T11:11:34;79574.00;;;12.20
12007;BMP180;6062;47.294;12.182;2023-04-24T11:14:03;79567.00;;;12.30
12007;BMP180;6062;47.294;12.182;2023-04-24T11:21:46;79575.00;;;12.40
12007;BMP180;6062;47.294;12.182;2023-04-24T11:24:31;79581.00;;;12.40
12007;BMP180;6062;47.294;12.182;2023-04-24T11:27:06;79584.00;;;12.40
12007;BMP180;6062;47.294;12.182;2023-04-24T11:32:35;79576.00;;;12.40
12007;BMP180;6062;47.294;12.182;2023-04-24T11:40:00;79579.00;;;12.40
12007;BMP180;6062;47.294;12.182;2023-04-24T11:42:27;79581.00;;;12.60
12007;BMP180;6062;47.294;12.182;2023-04-24T11:44:54;79571.00;;;12.70
12007;BMP180;6062;47.294;12.182;2023-04-24T11:47:32;79590.00;;;12.90
12007;BMP180;6062;47.294;12.182;2023-04-24T11:50:00;79590.00;;;13.00
12007;BMP180;6062;47.294;12.182;2023-04-24T11:52:27;79600.00;;;13.20
12007;BMP180;6062;47.294;12.182;2023-04-24T11:54:53;79589.00;;;13.30
12007;BMP180;6062;47.294;12.182;2023-04-24T11:57:20;79591.00;;;13.40
12007;BMP180;6062;47.294;12.182;2023-04-24T11:59:47;79598.00;;;13.60
12007;BMP180;6062;47.294;12.182;2023-04-24T12:02:26;79598.00;;;13.80
12007;BMP180;6062;47.294;12.182;2023-04-24T12:04:53;79590.00;;;13.90
12007;BMP180;6062;47.294;12.182;2023-04-24T12:07:19;79605.00;;;14.10
12007;BMP180;6062;47.294;12.182;2023-04-24T12:09:58;79593.00;;;14.30
12007;BMP180;6062;47.294;12.182;2023-04-24T12:12:27;79597.00;;;14.40
12007;BMP180;6062;47.294;12.182;2023-04-24T12:14:56;79595.00;;;14.40
12007;BMP180;6062;47.294;12.182;2023-04-24T12:17:31;79592.00;;;14.40
12007;BMP180;6062;47.294;12.182;2023-04-24T12:20:06;79586.00;;;14.50
12007;BMP180;6062;47.294;12.182;2023-04-24T12:22:56;79589.00;;;14.50
12007;BMP180;6062;47.294;12.182;2023-04-24T12:25:27;79595.00;;;14.20
12007;BMP180;6062;47.294;12.182;2023-04-24T12:28:12;79588.00;;;13.80
12007;BMP180;6062;47.294;12.182;2023-04-24T12:30:44;79593.00;;;13.70
12007;BMP180;6062;47.294;12.182;2023-04-24T12:33:21;79582.00;;;13.50
12007;BMP180;6062;47.294;12.182;2023-04-24T12:35:50;79591.00;;;13.30
12007;BMP180;6062;47.294;12.182;2023-04-24T12:38:23;79590.00;;;13.20
12007;BMP180;6062;47.294;12.182;2023-04-24T12:41:02;79588.00;;;13.30
12007;BMP180;6062;47.294;12.182;2023-04-24T12:43:29;79590.00;;;13.40
12007;BMP180;6062;47.294;12.182;2023-04-24T12:45:55;79587.00;;;13.40
12007;BMP180;6062;47.294;12.182;2023-04-24T12:48:21;79583.00;;;13.40
12007;BMP180;6062;47.294;12.182;2023-04-24T12:50:47;79581.00;;;13.50
12007;BMP180;6062;47.294;12.182;2023-04-24T12:53:14;79564.00;;;13.60
12007;BMP180;6062;47.294;12.182;2023-04-24T12:55:41;79575.00;;;13.80
12007;BMP180;6062;47.294;12.182;2023-04-24T12:58:07;79585.00;;;14.00
12007;BMP180;6062;47.294;12.182;2023-04-24T13:00:33;79578.00;;;14.20
12007;BMP180;6062;47.294;12.182;2023-04-24T13:02:59;79579.00;;;14.30
12007;BMP180;6062;47.294;12.182;2023-04-24T13:05:24;79584.00;;;14.40
12007;BMP180;6062;47.294;12.182;2023-04-24T13:07:50;79585.00;;;14.40
12007;BMP180;6062;47.294;12.182;2023-04-24T13:10:16;79575.00;;;14.30
12007;BMP180;6062;47.294;12.182;2023-04-24T13:12:42;79594.00;;;14.40
12007;BMP180;6062;47.294;12.182;2023-04-24T13:15:10;79595.00;;;14.40
12007;BMP180;6062;47.294;12.182;2023-04-24T13:17:36;79599.00;;;14.40
12007;BMP180;6062;47.294;12.182;2023-04-24T13:20:02;79575.00;;;14.40
12007;BMP180;6062;47.294;12.182;2023-04-24T13:22:28;79586.00;;;14.30
12007;BMP180;6062;47.294;12.182;2023-04-24T13:24:54;79591.00;;;14.10
12007;BMP180;6062;47.294;12.182;2023-04-24T13:27:20;79585.00;;;13.90
12007;BMP180;6062;47.294;12.182;2023-04-24T13:29:45;79595.00;;;13.70
12007;BMP180;6062;47.294;12.182;2023-04-24T13:32:11;79599.00;;;13.60
12007;BMP180;6062;47.294;12.182;2023-04-24T13:34:37;79593.00;;;13.60
12007;BMP180;6062;47.294;12.182;2023-04-24T13:37:04;79601.00;;;13.40
12007;BMP180;6062;47.294;12.182;2023-04-24T13:39:30;79596.00;;;13.20
12007;BMP180;6062;47.294;12.182;2023-04-24T13:41:57;79593.00;;;12.90
12007;BMP180;6062;47.294;12.182;2023-04-24T13:44:23;79589.00;;;12.60
12007;BMP180;6062;47.294;12.182;2023-04-24T13:46:53;79589.00;;;12.50
12007;BMP180;6062;47.294;12.182;2023-04-24T13:49:22;79594.00;;;12.40
12007;BMP180;6062;47.294;12.182;2023-04-24T13:51:50;79601.00;;;12.40
12007;BMP180;6062;47.294;12.182;2023-04-24T13:54:16;79600.00;;;12.50
12007;BMP180;6062;47.294;12.182;2023-04-24T13:56:42;79593.00;;;12.50
12007;BMP180;6062;47.294;12.182;2023-04-24T13:59:08;79587.00;;;12.30
12007;BMP180;6062;47.294;12.182;2023-04-24T14:01:34;79596.00;;;11.90
12007;BMP180;6062;47.294;12.182;2023-04-24T14:04:00;79598.00;;;11.70
12007;BMP180;6062;47.294;12.182;2023-04-24T14:06:26;79597.00;;;11.50
12007;BMP180;6062;47.294;12.182;2023-04-24T14:08:52;79599.00;;;11.50
12007;BMP180;6062;47.294;12.182;2023-04-24T14:11:18;79601.00;;;11.60
12007;BMP180;6062;47.294;12.182;2023-04-24T14:13:45;79597.00;;;11.70
12007;BMP180;6062;47.294;12.182;2023-04-24T14:16:12;79597.00;;;11.90
12007;BMP180;6062;47.294;12.182;2023-04-24T14:18:39;79603.00;;;12.00
12007;BMP180;6062;47.294;12.182;2023-04-24T14:21:05;79600.00;;;12.10
12007;BMP180;6062;47.294;12.182;2023-04-24T14:23:31;79601.00;;;12.20
12007;BMP180;6062;47.294;12.182;2023-04-24T14:25:58;79603.00;;;12.20
12007;BMP180;6062;47.294;12.182;2023-04-24T14:28:24;79612.00;;;12.30
12007;BMP180;6062;47.294;12.182;2023-04-24T14:30:50;79595.00;;;12.40
12007;BMP180;6062;47.294;12.182;2023-04-24T14:33:17;79586.00;;;12.50
12007;BMP180;6062;47.294;12.182;2023-04-24T14:35:42;79602.00;;;12.50